Time;durP1;ratioP1;P1;durP2;ratioP2;P2;SDS_P1;SDS_P2;PMS_P1;PMS_P2;Temp;Humidity;BMP_temperature;BMP_pressure;BME280_temperature;BME280_humidity;BME280_pressure;Samples;Min_cycle;Max_cycle;Signal;HPM_P1;HPM_P2
2023/04/22 00:01:48;;;;;;;12.98;7.85;;;;;;;7.43;100.00;100736.72;5054068;28;20041;-70
2023/04/22 00:04:15;;;;;;;10.35;8.00;;;;;;;7.44;100.00;100735.81;5054360;28;20044;-70
2023/04/22 00:06:44;;;;;;;11.55;7.85;;;;;;;7.43;100.00;100739.34;5064753;28;20124;-70
2023/04/22 00:09:13;;;;;;;12.20;7.78;;;;;;;7.43;100.00;100735.84;5061076;28;20092;-70
2023/04/22 00:11:40;;;;;;;10.88;8.15;;;;;;;7.40;100.00;100734.16;5052643;28;20041;-70
2023/04/22 00:14:07;;;;;;;10.57;8.50;;;;;;;7.39;100.00;100727.16;5057758;28;20037;-70
2023/04/22 00:16:34;;;;;;;10.23;8.20;;;;;;;7.38;100.00;100724.59;5058223;28;20053;-70
2023/04/22 00:19:02;;;;;;;12.65;8.90;;;;;;;7.41;100.00;100724.53;5066374;28;20044;-69
2023/04/22 00:21:30;;;;;;;9.68;8.50;;;;;;;7.40;100.00;100718.41;5051426;28;20045;-69
2023/04/22 00:23:57;;;;;;;9.43;8.00;;;;;;;7.40;100.00;100722.81;5088321;28;20082;-70
2023/04/22 00:26:24;;;;;;;11.13;8.35;;;;;;;7.38;100.00;100720.19;5051740;28;20151;-69
2023/04/22 00:28:52;;;;;;;10.60;8.13;;;;;;;7.37;100.00;100713.25;5032711;28;20041;-69
2023/04/22 00:31:19;;;;;;;10.15;8.00;;;;;;;7.35;100.00;100714.13;5049355;28;20161;-69
2023/04/22 00:33:46;;;;;;;9.65;8.48;;;;;;;7.33;100.00;100716.81;5064335;28;20504;-69
2023/04/22 00:36:13;;;;;;;10.10;8.07;;;;;;;7.30;100.00;100709.88;5081123;28;20075;-69
2023/04/22 00:38:50;;;;;;;11.18;8.80;;;;;;;7.28;100.00;100701.16;5064516;28;20048;-68
2023/04/22 00:41:17;;;;;;;10.45;8.02;;;;;;;7.26;100.00;100704.72;5080055;28;20037;-69
2023/04/22 00:43:45;;;;;;;11.50;8.27;;;;;;;7.24;100.00;100702.09;5055583;28;20154;-70
2023/04/22 00:46:15;;;;;;;8.95;8.02;;;;;;;7.20;100.00;100703.06;5059459;28;20103;-70
2023/04/22 00:48:42;;;;;;;11.80;7.75;;;;;;;7.13;100.00;100696.19;5048137;28;20171;-71
2023/04/22 00:51:09;;;;;;;10.20;7.82;;;;;;;7.07;100.00;100701.53;5065758;28;20260;-71
2023/04/22 00:53:36;;;;;;;9.25;8.32;;;;;;;7.01;100.00;100706.91;5064443;28;20828;-70
2023/04/22 00:56:04;;;;;;;10.82;8.68;;;;;;;6.95;100.00;100703.50;5064290;28;20165;-70
2023/04/22 00:58:32;;;;;;;10.50;8.57;;;;;;;6.90;100.00;100701.84;5064743;28;20143;-71
2023/04/22 01:00:59;;;;;;;11.85;9.77;;;;;;;6.85;100.00;100699.28;5066389;28;20516;-70
2023/04/22 01:03:29;;;;;;;11.85;9.07;;;;;;;6.81;100.00;100702.88;5048634;28;20038;-71
2023/04/22 01:05:57;;;;;;;12.77;9.55;;;;;;;6.78;100.00;100700.31;5058785;28;20108;-71
2023/04/22 01:08:28;;;;;;;10.25;9.18;;;;;;;6.75;100.00;100702.97;5048404;28;20038;-71
2023/04/22 01:10:56;;;;;;;12.52;9.60;;;;;;;6.72;100.00;100708.25;5051551;28;20541;-71
2023/04/22 01:13:23;;;;;;;14.68;9.77;;;;;;;6.70;100.00;100702.19;5053446;28;20179;-70
2023/04/22 01:15:52;;;;;;;10.40;8.90;;;;;;;6.64;100.00;100706.63;5048284;28;20034;-70
2023/04/22 01:18:20;;;;;;;9.52;8.23;;;;;;;6.60;100.00;100704.06;5078302;28;20041;-70
2023/04/22 01:20:47;;;;;;;9.57;8.48;;;;;;;6.51;100.00;100692.88;5058056;28;20067;-70
2023/04/22 01:23:19;;;;;;;9.73;7.95;;;;;;;6.47;100.00;100698.19;5062743;28;20025;-70
2023/04/22 01:25:47;;;;;;;12.38;9.05;;;;;;;6.42;100.00;100703.50;5058851;28;20034;-70
2023/04/22 01:28:16;;;;;;;11.43;8.57;;;;;;;6.35;100.00;100697.47;5064556;28;20040;-70
2023/04/22 01:30:43;;;;;;;10.85;9.38;;;;;;;6.34;100.00;100690.50;5067102;28;20033;-70
2023/04/22 01:33:11;;;;;;;11.05;9.20;;;;;;;6.35;100.00;100688.75;5058810;28;20151;-70
2023/04/22 01:35:38;;;;;;;10.88;9.20;;;;;;;6.35;100.00;100692.22;5062862;28;20049;-70
2023/04/22 01:38:08;;;;;;;11.18;9.43;;;;;;;6.37;100.00;100694.81;5049235;28;20025;-69
2023/04/22 01:40:37;;;;;;;10.55;9.45;;;;;;;6.37;100.00;100690.47;5049117;28;20044;-69
2023/04/22 01:43:05;;;;;;;10.10;8.68;;;;;;;6.39;100.00;100687.81;5067265;28;20548;-69
2023/04/22 01:45:32;;;;;;;10.93;8.95;;;;;;;6.41;100.00;100693.91;5048643;28;20119;-70
2023/04/22 01:47:59;;;;;;;12.00;10.15;;;;;;;6.44;100.00;100690.34;5051031;28;20033;-70
2023/04/22 01:50:27;;;;;;;11.93;9.50;;;;;;;6.46;100.00;100691.19;5061047;28;20068;-69
2023/04/22 01:52:56;;;;;;;10.60;9.40;;;;;;;6.46;100.00;100693.81;5052309;28;20049;-69
2023/04/22 01:55:23;;;;;;;12.80;9.68;;;;;;;6.44;100.00;100687.75;5060409;28;20130;-69
2023/04/22 01:57:51;;;;;;;12.32;10.55;;;;;;;6.44;100.00;100692.97;5065217;28;20052;-69
2023/04/22 02:00:18;;;;;;;12.73;11.10;;;;;;;6.40;100.00;100692.16;5062354;28;20037;-69
2023/04/22 02:02:47;;;;;;;13.07;10.70;;;;;;;6.41;100.00;100693.03;5060099;28;20037;-69
2023/04/22 02:05:14;;;;;;;10.05;9.00;;;;;;;6.42;100.00;100690.41;5051073;28;20523;-68
2023/04/22 02:07:44;;;;;;;11.35;9.82;;;;;;;6.41;100.00;100680.81;5062939;28;20060;-69
2023/04/22 02:10:15;;;;;;;12.35;10.88;;;;;;;6.46;100.00;100675.50;5057741;28;20048;-68
2023/04/22 02:12:43;;;;;;;16.73;13.07;;;;;;;6.49;100.00;100680.69;5049124;28;20049;-69
2023/04/22 02:15:10;;;;;;;14.75;12.60;;;;;;;6.51;100.00;100682.38;5079077;28;20057;-68
2023/04/22 02:17:38;;;;;;;17.40;13.85;;;;;;;6.52;100.00;100681.50;5083059;28;20046;-69
2023/04/22 02:20:06;;;;;;;20.58;14.73;;;;;;;6.51;100.00;100682.38;5049186;28;20045;-69
2023/04/22 02:22:33;;;;;;;20.48;14.50;;;;;;;6.55;100.00;100674.50;5063930;28;20076;-69
2023/04/22 02:25:00;;;;;;;19.70;15.10;;;;;;;6.59;100.00;100676.16;5068879;28;20376;-69
2023/04/22 02:27:27;;;;;;;22.08;17.40;;;;;;;6.62;100.00;100674.34;5051416;28;20045;-69
2023/04/22 02:29:54;;;;;;;24.33;17.80;;;;;;;6.68;100.00;100669.03;5062417;28;20194;-69
2023/04/22 02:32:21;;;;;;;24.45;18.27;;;;;;;6.71;100.00;100677.72;5062116;28;20042;-69
2023/04/22 02:34:48;;;;;;;29.05;19.48;;;;;;;6.77;100.00;100677.59;5064256;28;20612;-69
2023/04/22 02:37:15;;;;;;;24.20;18.35;;;;;;;6.82;100.00;100673.13;5078529;28;20045;-69
2023/04/22 02:39:42;;;;;;;25.90;19.77;;;;;;;6.84;100.00;100664.38;5065405;28;20044;-69
2023/04/22 02:42:10;;;;;;;28.20;20.83;;;;;;;6.92;100.00;100666.00;5055159;28;20048;-70
2023/04/22 02:44:37;;;;;;;35.38;22.90;;;;;;;6.96;100.00;100663.28;5049047;28;20038;-69
2023/04/22 02:47:06;;;;;;;30.73;21.88;;;;;;;7.00;100.00;100671.94;5047546;28;20077;-69
2023/04/22 02:49:33;;;;;;;27.10;19.80;;;;;;;6.98;100.00;100658.88;5067367;28;20081;-69
2023/04/22 02:52:00;;;;;;;32.10;21.25;;;;;;;7.01;100.00;100655.34;5053048;28;20055;-69
2023/04/22 02:54:27;;;;;;;30.77;21.38;;;;;;;7.04;100.00;100655.28;5051381;28;20496;-68
2023/04/22 02:56:54;;;;;;;37.25;25.55;;;;;;;7.03;100.00;100655.28;5067495;28;20041;-69
2023/04/22 02:59:21;;;;;;;35.88;25.17;;;;;;;7.04;100.00;100654.41;5047495;28;20044;-70
2023/04/22 03:01:49;;;;;;;35.95;25.27;;;;;;;7.05;100.00;100650.91;5070293;28;20100;-70
2023/04/22 03:04:31;;;;;;;40.63;27.23;;;;;;;7.08;100.00;100651.69;5033789;28;20049;-70
2023/04/22 03:06:58;;;;;;;43.95;28.70;;;;;;;7.11;100.00;100649.03;5063679;28;20984;-70
2023/04/22 03:09:25;;;;;;;43.00;28.63;;;;;;;7.14;100.00;100641.13;5065285;28;20063;-70
2023/04/22 03:11:54;;;;;;;46.35;29.23;;;;;;;7.17;100.00;100642.81;5078987;28;20506;-70
2023/04/22 03:14:21;;;;;;;51.45;30.60;;;;;;;7.18;100.00;100638.41;5050610;28;20089;-68
2023/04/22 03:16:49;;;;;;;44.30;28.45;;;;;;;7.18;100.00;100644.53;5058929;28;20041;-69
2023/04/22 03:19:17;;;;;;;44.50;29.50;;;;;;;7.20;100.00;100642.75;5061527;28;20038;-70
2023/04/22 03:21:44;;;;;;;44.78;29.10;;;;;;;7.21;100.00;100640.97;5089243;28;20139;-70
2023/04/22 03:24:11;;;;;;;42.05;29.00;;;;;;;7.21;100.00;100643.59;5047930;28;20108;-70
2023/04/22 03:26:44;;;;;;;41.25;28.10;;;;;;;7.23;100.00;100644.44;5050877;28;20497;-70
2023/04/22 03:29:11;;;;;;;51.08;30.85;;;;;;;7.26;100.00;100639.16;5049657;28;20037;-70
2023/04/22 03:31:38;;;;;;;46.13;31.55;;;;;;;7.26;100.00;100639.16;5048450;28;20119;-69
2023/04/22 03:34:05;;;;;;;53.30;32.55;;;;;;;7.28;100.00;100632.09;5066019;28;20513;-69
2023/04/22 03:36:32;;;;;;;50.97;32.22;;;;;;;7.28;100.00;100627.72;5047326;28;21388;-69
2023/04/22 03:38:59;;;;;;;49.83;31.98;;;;;;;7.29;100.00;100631.19;5046249;28;20579;-70
2023/04/22 03:41:29;;;;;;;52.05;33.08;;;;;;;7.31;100.00;100621.56;5091138;28;20061;-70
2023/04/22 03:43:56;;;;;;;55.45;35.65;;;;;;;7.33;100.00;100622.41;5072746;28;20038;-70
2023/04/22 03:46:27;;;;;;;57.20;34.33;;;;;;;7.32;100.00;100607.56;5047404;28;20054;-70
2023/04/22 03:49:06;;;;;;;53.17;33.47;;;;;;;7.35;100.00;100609.25;5063131;28;20053;-70
2023/04/22 03:51:34;;;;;;;58.42;36.15;;;;;;;7.37;100.00;100603.09;5086983;28;20041;-70
2023/04/22 03:54:06;;;;;;;57.28;35.28;;;;;;;7.38;100.00;100607.41;5049540;28;20996;-70
2023/04/22 03:56:37;;;;;;;65.05;37.30;;;;;;;7.40;100.00;100604.78;5046319;28;20050;-70
2023/04/22 03:59:04;;;;;;;56.67;35.75;;;;;;;7.43;100.00;100604.69;5062293;28;20115;-70
2023/04/22 04:01:33;;;;;;;59.17;35.90;;;;;;;7.42;100.00;100595.97;5058119;28;20030;-70
2023/04/22 04:04:03;;;;;;;60.05;36.97;;;;;;;7.44;100.00;100595.94;5065265;28;20033;-71
2023/04/22 04:06:47;;;;;;;57.83;35.55;;;;;;;7.44;100.00;100591.56;5060058;28;20041;-70
2023/04/22 04:09:15;;;;;;;58.00;36.25;;;;;;;7.46;100.00;100595.03;5049612;28;20044;-69
2023/04/22 04:11:42;;;;;;;59.95;37.53;;;;;;;7.46;100.00;100592.41;5091846;28;20084;-69
2023/04/22 04:14:10;;;;;;;65.07;38.15;;;;;;;7.49;100.00;100593.19;5059402;28;20041;-69
2023/04/22 04:16:44;;;;;;;60.78;38.28;;;;;;;7.51;100.00;100594.91;5048975;28;20053;-69
2023/04/22 04:19:17;;;;;;;59.33;36.70;;;;;;;7.52;100.00;100588.78;5065435;28;20394;-69
2023/04/22 04:21:44;;;;;;;64.28;38.15;;;;;;;7.53;100.00;100587.00;5056398;28;20529;-69
2023/04/22 04:24:11;;;;;;;65.47;38.78;;;;;;;7.55;100.00;100593.09;5032886;28;20033;-69
2023/04/22 04:26:44;;;;;;;63.20;38.85;;;;;;;7.56;100.00;100582.56;5086049;28;20125;-69
2023/04/22 04:29:14;;;;;;;61.42;38.25;;;;;;;7.60;100.00;100585.97;5046817;28;20770;-69
2023/04/22 04:31:47;;;;;;;59.55;36.78;;;;;;;7.59;100.00;100586.88;5061258;28;20053;-69
2023/04/22 04:34:15;;;;;;;62.08;38.17;;;;;;;7.61;100.00;100579.81;5068798;28;20116;-69
2023/04/22 04:36:42;;;;;;;63.40;38.75;;;;;;;7.62;100.00;100573.69;5065592;28;20128;-69
2023/04/22 04:39:17;;;;;;;63.65;38.35;;;;;;;7.64;100.00;100568.41;5064683;28;20037;-70
2023/04/22 04:41:47;;;;;;;70.68;39.65;;;;;;;7.66;100.00;100570.13;5063684;28;20507;-69
2023/04/22 04:44:15;;;;;;;71.88;40.28;;;;;;;7.68;100.00;100570.06;5062593;28;20037;-70
2023/04/22 04:46:43;;;;;;;64.57;38.28;;;;;;;7.69;100.00;100572.66;5064881;28;20092;-68
2023/04/22 04:49:11;;;;;;;70.97;39.28;;;;;;;7.69;100.00;100572.66;5045247;28;20462;-68
2023/04/22 04:51:54;;;;;;;60.85;39.60;;;;;;;7.67;100.00;100577.09;5060948;28;20033;-69
2023/04/22 04:54:21;;;;;;;61.40;37.75;;;;;;;7.71;100.00;100589.22;5061402;28;20072;-68
2023/04/22 04:56:48;;;;;;;66.47;39.85;;;;;;;7.73;100.00;100582.19;5061729;28;20049;-67
2023/04/22 04:59:15;;;;;;;65.32;39.15;;;;;;;7.78;100.00;100576.84;5062254;28;20059;-67
2023/04/22 05:01:42;;;;;;;71.00;39.50;;;;;;;7.77;100.00;100575.97;5044312;28;20037;-69
2023/04/22 05:04:11;;;;;;;61.05;38.03;;;;;;;7.79;100.00;100570.69;5063045;28;20041;-69
2023/04/22 05:06:42;;;;;;;63.78;38.15;;;;;;;7.83;100.00;100569.72;5060642;28;20045;-68
2023/04/22 05:09:09;;;;;;;67.25;39.13;;;;;;;7.85;100.00;100569.69;5063316;28;20554;-68
2023/04/22 05:11:36;;;;;;;66.78;37.75;;;;;;;7.87;100.00;100571.38;5075587;28;20057;-68
2023/04/22 05:14:11;;;;;;;60.60;38.08;;;;;;;7.91;100.00;100574.78;5062625;28;20041;-70
2023/04/22 05:16:41;;;;;;;67.43;38.22;;;;;;;7.96;100.00;100577.28;5079059;28;20068;-70
2023/04/22 05:19:09;;;;;;;62.70;38.47;;;;;;;7.99;100.00;100575.44;5060879;28;20041;-70
2023/04/22 05:21:36;;;;;;;61.67;38.63;;;;;;;8.03;100.00;100581.53;5076209;28;20033;-69
2023/04/22 05:24:06;;;;;;;57.80;38.08;;;;;;;8.07;100.00;100586.66;5061266;28;20091;-69
2023/04/22 05:26:33;;;;;;;61.63;37.30;;;;;;;8.13;100.00;100583.03;5078833;28;20052;-69
2023/04/22 05:29:06;;;;;;;58.50;36.10;;;;;;;8.17;100.00;100582.03;5062136;28;20076;-70
2023/04/22 05:31:34;;;;;;;59.97;37.17;;;;;;;8.20;100.00;100588.97;5059728;28;20073;-70
2023/04/22 05:34:01;;;;;;;61.60;35.47;;;;;;;8.27;100.00;100592.31;5062574;28;20033;-70
2023/04/22 05:36:28;;;;;;;54.28;34.38;;;;;;;8.32;100.00;100585.19;5061946;28;20513;-70
2023/04/22 05:38:58;;;;;;;54.72;34.47;;;;;;;8.34;100.00;100588.66;5061891;28;20517;-70
2023/04/22 05:41:26;;;;;;;56.85;35.50;;;;;;;8.40;100.00;100584.06;5058238;28;20890;-70
2023/04/22 05:43:55;;;;;;;56.17;33.97;;;;;;;8.44;100.00;100578.75;5047170;28;20381;-70
2023/04/22 05:46:23;;;;;;;53.13;35.53;;;;;;;8.48;100.00;100575.19;5059813;28;20088;-71
2023/04/22 05:48:51;;;;;;;56.22;33.50;;;;;;;8.53;100.00;100578.56;5062045;28;20037;-70
2023/04/22 05:51:41;;;;;;;50.63;34.20;;;;;;;8.57;100.00;100572.31;5061298;28;20120;-70
2023/04/22 05:54:11;;;;;;;54.10;33.42;;;;;;;8.61;100.00;100573.09;5057993;28;20464;-70
2023/04/22 05:56:40;;;;;;;52.88;32.88;;;;;;;8.66;100.00;100572.06;5078171;28;20130;-70
2023/04/22 05:59:07;;;;;;;50.92;33.60;;;;;;;8.74;100.00;100573.63;5076011;28;20037;-70
2023/04/22 06:01:36;;;;;;;51.42;33.50;;;;;;;8.83;100.00;100579.50;5050441;28;20860;-70
2023/04/22 06:04:08;;;;;;;47.83;32.30;;;;;;;8.96;100.00;100587.91;5057698;28;20048;-70
2023/04/22 06:06:36;;;;;;;46.47;31.83;;;;;;;9.11;100.00;100588.38;5063200;28;20061;-70
2023/04/22 06:09:06;;;;;;;42.97;30.10;;;;;;;9.27;100.00;100597.56;5060839;28;20508;-70
2023/04/22 06:11:33;;;;;;;41.63;29.75;;;;;;;9.44;100.00;100591.81;5060545;28;20060;-70
2023/04/22 06:14:00;;;;;;;39.35;27.95;;;;;;;9.58;100.00;100587.91;5063336;28;20095;-70
2023/04/22 06:16:28;;;;;;;40.40;27.80;;;;;;;9.66;100.00;100585.03;5080890;28;20067;-70
2023/04/22 06:18:56;;;;;;;35.97;25.88;;;;;;;9.82;100.00;100582.81;5079909;28;20124;-70
2023/04/22 06:21:24;;;;;;;37.17;26.50;;;;;;;9.89;100.00;100579.06;5062573;28;20040;-70
2023/04/22 06:23:51;;;;;;;36.22;26.00;;;;;;;10.00;100.00;100570.84;5062023;28;20037;-70
2023/04/22 06:26:18;;;;;;;35.38;24.30;;;;;;;10.08;100.00;100568.81;5064537;28;20548;-69
2023/04/22 06:28:45;;;;;;;33.70;24.70;;;;;;;10.17;100.00;100565.03;5076945;28;20564;-69
2023/04/22 06:31:16;;;;;;;37.13;24.10;;;;;;;10.29;99.99;100559.31;5060593;28;20119;-69
2023/04/22 06:33:46;;;;;;;33.72;22.00;;;;;;;10.36;100.00;100562.63;5059966;28;20560;-70
2023/04/22 06:36:14;;;;;;;33.00;23.52;;;;;;;10.45;99.85;100569.38;5055239;28;20047;-71
2023/04/22 06:38:43;;;;;;;29.02;20.83;;;;;;;10.64;100.00;100556.41;5062817;28;20040;-73
2023/04/22 06:41:27;;;;;;;26.08;19.60;;;;;;;10.81;100.00;100561.09;5065645;28;20094;-72
2023/04/22 06:43:59;;;;;;;24.77;19.10;;;;;;;10.99;100.00;100556.94;5087552;28;20053;-72
2023/04/22 06:46:45;;;;;;;23.85;18.40;;;;;;;11.22;99.95;100544.69;5065314;28;20064;-72
2023/04/22 06:49:38;;;;;;;20.15;16.10;;;;;;;11.41;98.85;100544.81;5065101;28;20036;-73
2023/04/22 06:52:27;;;;;;;16.90;14.10;;;;;;;11.62;96.51;100541.34;5085924;28;20033;-72
2023/04/22 06:54:57;;;;;;;18.55;14.90;;;;;;;11.76;95.33;100537.31;5039942;28;20056;-72
2023/04/22 06:57:24;;;;;;;18.13;14.68;;;;;;;11.84;95.11;100537.84;5051682;28;20038;-72
2023/04/22 06:59:51;;;;;;;17.85;13.50;;;;;;;11.93;94.36;100545.41;5066474;28;20469;-72
2023/04/22 07:02:19;;;;;;;16.80;13.10;;;;;;;12.08;93.86;100543.94;5092836;28;20114;-72
2023/04/22 07:04:46;;;;;;;17.23;13.68;;;;;;;12.23;93.21;100545.09;5092361;28;20041;-72
2023/04/22 07:07:13;;;;;;;18.02;13.35;;;;;;;12.33;92.79;100548.22;5067224;28;20488;-72
2023/04/22 07:09:40;;;;;;;14.77;12.43;;;;;;;12.40;92.44;100539.09;5079255;28;20600;-72
2023/04/22 07:12:08;;;;;;;14.63;11.43;;;;;;;12.50;92.27;100530.75;5080199;28;20049;-72
2023/04/22 07:14:36;;;;;;;15.60;11.43;;;;;;;12.64;91.59;100531.03;5059091;28;20077;-73
2023/04/22 07:17:03;;;;;;;12.52;10.48;;;;;;;12.79;91.07;100528.63;5067929;28;20160;-73
2023/04/22 07:19:30;;;;;;;12.75;9.65;;;;;;;12.93;90.76;100536.81;5083646;28;20525;-72
2023/04/22 07:22:02;;;;;;;11.82;9.02;;;;;;;13.07;90.78;100532.69;5067792;28;20574;-72
2023/04/22 07:24:29;;;;;;;12.75;9.82;;;;;;;13.20;89.38;100529.41;5059132;28;20037;-72
2023/04/22 07:26:56;;;;;;;11.23;9.13;;;;;;;13.28;89.34;100523.72;5067230;28;20072;-72
2023/04/22 07:29:23;;;;;;;10.32;8.45;;;;;;;13.36;89.68;100526.03;5063193;28;20048;-72
2023/04/22 07:31:50;;;;;;;10.52;8.77;;;;;;;13.47;89.60;100522.94;5066636;28;20037;-72
2023/04/22 07:34:18;;;;;;;10.55;8.43;;;;;;;13.62;89.11;100521.34;5064801;28;20103;-72
2023/04/22 07:36:45;;;;;;;10.15;8.45;;;;;;;13.77;88.74;100520.56;5067207;28;20079;-73
2023/04/22 07:39:12;;;;;;;14.25;8.27;;;;;;;13.95;87.50;100520.59;5063303;28;20878;-72
2023/04/22 07:41:39;;;;;;;10.82;8.15;;;;;;;14.08;86.07;100534.13;5066839;28;20040;-73
2023/04/22 07:44:06;;;;;;;14.60;7.97;;;;;;;14.19;84.98;100520.31;5057409;28;20045;-73
2023/04/22 07:46:35;;;;;;;10.38;7.95;;;;;;;14.34;85.77;100524.84;5062074;28;20041;-69
2023/04/22 07:49:03;;;;;;;11.45;7.88;;;;;;;14.52;85.13;100524.84;5068927;28;20037;-69
2023/04/22 07:51:31;;;;;;;10.27;7.28;;;;;;;14.62;85.00;100527.84;5067620;28;20033;-69
2023/04/22 07:53:58;;;;;;;10.38;7.82;;;;;;;14.71;85.51;100528.28;5066279;28;20421;-70
2023/04/22 07:56:25;;;;;;;12.32;8.00;;;;;;;14.85;85.81;100532.00;5067065;28;20045;-70
2023/04/22 07:58:52;;;;;;;9.55;7.40;;;;;;;15.09;84.57;100539.56;5061693;28;20037;-71
2023/04/22 08:01:19;;;;;;;9.73;7.25;;;;;;;15.37;83.92;100536.25;5063332;28;20044;-70
2023/04/22 08:03:46;;;;;;;8.52;6.70;;;;;;;15.48;83.62;100535.66;5072728;28;20044;-70
2023/04/22 08:06:14;;;;;;;8.93;6.70;;;;;;;15.53;83.34;100533.63;5067048;28;20037;-70
2023/04/22 08:08:41;;;;;;;7.07;6.25;;;;;;;15.57;83.36;100542.25;5048223;28;20548;-71
2023/04/22 08:11:08;;;;;;;8.63;6.65;;;;;;;15.67;83.04;100548.78;5062871;28;20128;-70
2023/04/22 08:13:35;;;;;;;8.57;5.93;;;;;;;15.75;82.82;100546.53;5058329;28;20556;-69
2023/04/22 08:16:02;;;;;;;8.40;6.10;;;;;;;15.81;81.19;100535.56;5064427;28;20045;-69
2023/04/22 08:18:29;;;;;;;8.23;6.22;;;;;;;15.82;80.55;100516.00;5064848;28;20123;-70
2023/04/22 08:20:56;;;;;;;9.65;6.35;;;;;;;15.84;78.41;100508.84;5065535;28;20063;-70
2023/04/22 08:23:24;;;;;;;7.03;6.03;;;;;;;15.87;80.20;100512.25;5083373;28;20040;-71
2023/04/22 08:25:52;;;;;;;9.48;6.00;;;;;;;15.91;79.96;100506.69;5076268;28;20040;-69
2023/04/22 08:28:19;;;;;;;7.13;5.50;;;;;;;15.98;80.13;100510.69;5073576;28;20041;-71
2023/04/22 08:30:46;;;;;;;7.30;5.47;;;;;;;16.06;80.14;100501.44;5068462;28;20219;-71
2023/04/22 08:33:13;;;;;;;8.88;6.03;;;;;;;16.11;79.98;100502.00;5084827;28;20251;-71
2023/04/22 08:35:40;;;;;;;8.02;6.07;;;;;;;16.15;78.39;100506.19;5066989;28;20804;-71
2023/04/22 08:38:07;;;;;;;10.52;5.90;;;;;;;16.20;78.76;100500.59;5068773;28;20040;-69
2023/04/22 08:40:34;;;;;;;7.82;5.63;;;;;;;16.28;78.51;100488.53;5061336;28;20041;-71
2023/04/22 08:43:01;;;;;;;7.65;5.90;;;;;;;16.37;78.53;100495.13;5061652;28;20095;-72
2023/04/22 08:45:29;;;;;;;7.20;6.22;;;;;;;16.46;77.29;100486.59;5086835;28;20037;-70
2023/04/22 08:47:56;;;;;;;8.23;5.90;;;;;;;16.55;76.49;100489.63;5058497;28;20528;-70
2023/04/22 08:50:24;;;;;;;7.82;5.90;;;;;;;16.64;77.12;100488.22;5076746;28;20048;-72
2023/04/22 08:52:51;;;;;;;7.20;5.30;;;;;;;16.73;77.27;100480.53;5082905;28;20807;-69
2023/04/22 08:55:19;;;;;;;7.22;5.70;;;;;;;16.83;76.48;100483.47;5065549;28;20033;-70
2023/04/22 08:57:46;;;;;;;7.72;5.90;;;;;;;16.90;75.98;100479.47;5057650;28;20046;-72
2023/04/22 09:00:15;;;;;;;7.90;6.07;;;;;;;17.00;76.88;100474.47;5061991;28;20100;-71
2023/04/22 09:02:44;;;;;;;7.45;5.88;;;;;;;17.14;76.01;100478.06;5056479;28;20148;-71
2023/04/22 09:05:13;;;;;;;9.55;5.88;;;;;;;17.30;76.46;100481.44;5082253;28;20048;-72
2023/04/22 09:07:41;;;;;;;7.70;6.13;;;;;;;17.48;76.93;100473.22;5090984;27;20037;-72
2023/04/22 09:10:10;;;;;;;6.50;5.57;;;;;;;17.57;75.89;100477.94;5066133;28;20037;-72
2023/04/22 09:12:40;;;;;;;7.00;5.53;;;;;;;17.67;75.24;100475.53;5068478;28;20044;-69
2023/04/22 09:15:08;;;;;;;7.88;6.07;;;;;;;17.74;74.47;100463.50;5082214;28;20065;-69
2023/04/22 09:17:37;;;;;;;8.20;6.00;;;;;;;17.81;73.60;100455.94;5079850;28;20096;-71
2023/04/22 09:20:07;;;;;;;9.48;5.80;;;;;;;17.87;72.04;100452.84;5058325;28;20033;-70
2023/04/22 09:22:44;;;;;;;8.77;6.85;;;;;;;17.94;72.74;100455.97;5061282;28;20658;-70
2023/04/22 09:25:25;;;;;;;7.72;5.93;;;;;;;17.97;70.37;100445.97;5075362;28;20464;-71
2023/04/22 09:27:56;;;;;;;6.53;5.82;;;;;;;17.96;71.99;100454.94;5093593;28;20040;-70
2023/04/22 09:30:30;;;;;;;7.65;6.05;;;;;;;18.02;71.12;100451.00;5064969;28;20041;-70
2023/04/22 09:33:03;;;;;;;10.50;6.50;;;;;;;18.09;71.77;100452.31;5064959;28;20120;-70
2023/04/22 09:35:39;;;;;;;7.40;5.55;;;;;;;18.13;72.27;100444.94;5081683;28;20051;-70
2023/04/22 09:38:11;;;;;;;9.20;6.07;;;;;;;18.19;70.95;100449.00;5072196;28;20134;-70
2023/04/22 09:40:42;;;;;;;8.43;5.65;;;;;;;18.28;71.57;100456.38;5064201;28;20532;-70
2023/04/22 09:43:10;;;;;;;7.68;5.75;;;;;;;18.38;71.46;100454.78;5081235;28;20067;-71
2023/04/22 09:45:41;;;;;;;7.07;5.47;;;;;;;18.56;71.07;100454.47;5067771;28;20092;-70
2023/04/22 09:48:09;;;;;;;6.20;5.57;;;;;;;18.62;70.13;100454.00;5077118;28;20051;-69
2023/04/22 09:50:49;;;;;;;6.63;5.30;;;;;;;18.69;69.85;100452.63;5067302;28;20099;-71
2023/04/22 09:53:20;;;;;;;8.18;5.38;;;;;;;18.82;70.00;100447.28;5064665;28;20044;-71
2023/04/22 09:55:52;;;;;;;8.15;5.22;;;;;;;18.89;68.81;100451.19;5073292;28;20038;-70
2023/04/22 09:58:26;;;;;;;7.00;4.90;;;;;;;19.01;67.87;100443.31;5069155;28;20565;-71
2023/04/22 10:00:55;;;;;;;5.85;5.10;;;;;;;19.24;68.24;100446.97;5083820;28;20049;-70
2023/04/22 10:03:23;;;;;;;6.35;4.55;;;;;;;19.48;67.60;100430.97;5058590;28;21288;-71
2023/04/22 10:05:50;;;;;;;6.95;5.00;;;;;;;19.56;64.50;100433.03;5065560;28;20092;-71
2023/04/22 10:08:17;;;;;;;5.88;4.63;;;;;;;19.62;65.82;100431.75;5085471;28;20041;-71
2023/04/22 10:10:45;;;;;;;6.95;4.80;;;;;;;19.68;65.83;100426.78;5069926;28;20040;-72
2023/04/22 10:13:12;;;;;;;6.50;4.85;;;;;;;19.78;66.07;100415.41;5065084;28;20029;-71
2023/04/22 10:15:47;;;;;;;5.70;4.60;;;;;;;19.92;65.95;100425.94;5087809;28;21098;-70
2023/04/22 10:18:21;;;;;;;7.45;4.63;;;;;;;20.05;63.98;100439.22;5075362;28;20128;-71
2023/04/22 10:20:50;;;;;;;7.18;4.35;;;;;;;20.13;64.13;100438.63;5056477;28;20136;-71
2023/04/22 10:23:21;;;;;;;5.57;4.55;;;;;;;20.15;62.86;100440.22;5062007;28;20045;-70
2023/04/22 10:25:53;;;;;;;5.45;4.65;;;;;;;20.09;61.01;100432.66;5084938;28;20044;-70
2023/04/22 10:28:23;;;;;;;6.63;4.65;;;;;;;20.12;61.39;100442.28;5072863;28;20615;-70
2023/04/22 10:30:50;;;;;;;5.95;4.47;;;;;;;20.19;62.02;100438.16;5064007;28;20044;-70
2023/04/22 10:33:21;;;;;;;8.25;4.72;;;;;;;20.31;62.25;100425.63;5061644;28;20037;-70
2023/04/22 10:36:13;;;;;;;6.07;4.30;;;;;;;20.39;62.39;100428.59;5054021;28;20048;-70
2023/04/22 10:39:01;;;;;;;10.18;4.00;;;;;;;20.47;60.74;100436.84;5060523;28;20342;-70
2023/04/22 10:41:31;;;;;;;6.80;4.40;;;;;;;20.64;61.26;100434.66;5067958;28;20045;-71
2023/04/22 10:44:04;;;;;;;6.75;4.00;;;;;;;20.81;61.23;100427.16;5082135;28;20063;-73
2023/04/22 10:46:38;;;;;;;7.50;4.00;;;;;;;21.06;61.15;100426.88;5077710;28;20052;-70
2023/04/22 10:49:11;;;;;;;7.00;4.15;;;;;;;21.21;60.37;100442.69;5073243;28;20048;-71
2023/04/22 10:51:48;;;;;;;6.13;4.43;;;;;;;21.20;58.80;100439.13;5099203;28;20051;-71
2023/04/22 10:54:36;;;;;;;5.35;4.18;;;;;;;21.39;59.31;100430.44;5070754;28;20044;-71
2023/04/22 10:57:08;;;;;;;4.38;3.80;;;;;;;21.39;54.39;100433.13;5065616;28;20053;-71
2023/04/22 10:59:53;;;;;;;5.38;3.97;;;;;;;21.29;55.92;100442.03;5061610;28;20044;-71
2023/04/22 11:02:22;;;;;;;5.30;3.97;;;;;;;21.27;56.60;100442.16;5069418;28;20041;-71
2023/04/22 11:04:53;;;;;;;6.75;3.85;;;;;;;21.25;56.15;100434.25;5062745;28;20048;-71
2023/04/22 11:07:26;;;;;;;7.20;4.28;;;;;;;21.63;57.36;100437.44;5088108;27;20789;-71
2023/04/22 11:10:08;;;;;;;7.33;3.70;;;;;;;21.97;57.33;100423.03;5065208;28;20041;-71
2023/04/22 11:12:38;;;;;;;4.82;3.45;;;;;;;22.13;55.13;100427.94;5065991;28;20098;-71
2023/04/22 11:15:07;;;;;;;4.20;3.45;;;;;;;22.17;55.76;100430.22;5069181;28;20044;-72
2023/04/22 11:17:42;;;;;;;4.75;2.80;;;;;;;22.30;55.49;100423.78;5069355;28;20095;-71
2023/04/22 11:20:20;;;;;;;3.80;3.25;;;;;;;22.59;54.85;100423.97;5067285;28;20120;-71
2023/04/22 11:22:56;;;;;;;4.13;3.08;;;;;;;22.62;54.67;100421.00;5067556;28;20041;-71
2023/04/22 11:25:25;;;;;;;6.05;3.70;;;;;;;22.61;54.77;100421.13;5074069;28;20040;-71
2023/04/22 11:27:56;;;;;;;5.38;3.45;;;;;;;22.67;55.14;100425.09;5085923;28;20040;-71